createdAt,value
2019-03-19T00:00:07.784Z,4.41
2019-03-19T00:01:07.780Z,4.41
2019-03-19T00:02:07.798Z,4.39
2019-03-19T00:03:07.756Z,4.46
2019-03-19T00:04:07.744Z,4.45
2019-03-19T00:05:07.740Z,4.45
2019-03-19T00:06:07.726Z,4.45
2019-03-19T00:07:07.732Z,4.34
2019-03-19T00:08:07.706Z,4.39
2019-03-19T00:09:07.751Z,4.31
2019-03-19T00:10:07.688Z,4.38
2019-03-19T00:11:07.666Z,4.43
2019-03-19T00:12:07.681Z,4.34
2019-03-19T00:13:07.656Z,4.30
2019-03-19T00:14:07.692Z,4.43
2019-03-19T00:15:07.628Z,4.27
2019-03-19T00:16:07.612Z,4.38
2019-03-19T00:17:07.738Z,4.34
2019-03-19T00:18:07.601Z,4.42
2019-03-19T00:19:07.588Z,4.36
2019-03-19T00:20:07.583Z,4.41
2019-03-19T00:21:07.567Z,4.39
2019-03-19T00:22:07.567Z,4.36
2019-03-19T00:23:07.544Z,4.35
2019-03-19T00:24:07.545Z,4.27
2019-03-19T00:25:07.530Z,4.30
2019-03-19T00:26:07.522Z,4.30
2019-03-19T00:27:07.533Z,4.23
2019-03-19T00:28:07.491Z,4.20
2019-03-19T00:29:07.484Z,4.35
2019-03-19T00:30:07.476Z,4.18
2019-03-19T00:31:07.461Z,4.26
2019-03-19T00:32:07.459Z,4.21
2019-03-19T00:33:07.437Z,4.23
2019-03-19T00:34:07.421Z,4.27
2019-03-19T00:35:07.412Z,4.24
2019-03-19T00:36:07.451Z,4.09
2019-03-19T00:37:07.411Z,4.08
2019-03-19T00:38:07.379Z,4.05
2019-03-19T00:39:07.382Z,4.00
2019-03-19T00:40:07.365Z,4.06
2019-03-19T00:41:07.352Z,3.94
2019-03-19T00:42:07.372Z,4.02
2019-03-19T00:43:07.339Z,3.96
2019-03-19T00:44:07.323Z,3.91
2019-03-19T00:45:07.310Z,3.90
2019-03-19T00:46:07.301Z,3.90
2019-03-19T00:47:07.327Z,3.90
2019-03-19T00:48:07.275Z,3.80
2019-03-19T00:49:07.277Z,3.74
2019-03-19T00:50:07.262Z,3.76
2019-03-19T00:51:07.239Z,3.66
2019-03-19T00:52:07.232Z,3.72
2019-03-19T00:53:07.241Z,3.60
2019-03-19T00:54:07.220Z,3.62
2019-03-19T00:55:07.230Z,3.48
2019-03-19T00:56:07.196Z,3.51
2019-03-19T00:57:07.182Z,3.54
2019-03-19T00:58:07.184Z,3.49
2019-03-19T00:59:07.219Z,3.42
2019-03-19T01:00:07.153Z,3.42
2019-03-19T01:01:07.149Z,3.45
2019-03-19T01:02:07.124Z,3.49
2019-03-19T01:03:07.135Z,3.41
2019-03-19T01:04:07.109Z,3.41
2019-03-19T01:05:07.157Z,3.32
2019-03-19T01:06:07.097Z,3.42
2019-03-19T01:07:07.073Z,3.35
2019-03-19T01:08:07.089Z,3.33
2019-03-19T01:09:07.055Z,3.25
2019-03-19T01:10:07.078Z,3.18
2019-03-19T01:11:07.037Z,3.27
2019-03-19T01:12:07.026Z,3.23
2019-03-19T01:13:07.040Z,3.25
2019-03-19T01:14:06.996Z,3.27
2019-03-19T01:15:06.990Z,3.32
2019-03-19T01:16:07.028Z,3.37
2019-03-19T01:17:06.964Z,3.35
2019-03-19T01:18:06.966Z,3.37
2019-03-19T01:19:06.949Z,3.46
2019-03-19T01:20:06.932Z,3.46
2019-03-19T01:21:06.939Z,3.48
2019-03-19T01:22:06.913Z,3.35
2019-03-19T01:23:06.925Z,3.44
2019-03-19T01:24:06.902Z,3.44
2019-03-19T01:25:06.932Z,3.51
2019-03-19T01:26:06.872Z,3.46
2019-03-19T01:27:06.861Z,3.51
2019-03-19T01:28:06.869Z,3.52
2019-03-19T01:29:06.839Z,3.59
2019-03-19T01:30:06.836Z,3.63
2019-03-19T01:31:06.825Z,3.67
2019-03-19T01:32:06.806Z,3.59
2019-03-19T01:33:06.815Z,3.63
2019-03-19T01:34:06.787Z,3.73
2019-03-19T01:35:06.820Z,3.66
2019-03-19T01:36:06.766Z,3.67
2019-03-19T01:37:06.760Z,3.66
2019-03-19T01:38:06.767Z,3.72
2019-03-19T01:39:06.736Z,3.78
2019-03-19T01:40:06.725Z,3.82
2019-03-19T01:41:06.718Z,3.80
2019-03-19T01:42:06.711Z,3.85
2019-03-19T01:43:06.711Z,3.85
2019-03-19T01:44:06.685Z,3.81
2019-03-19T01:45:06.665Z,3.82
2019-03-19T01:46:06.669Z,3.81
2019-03-19T01:47:06.697Z,3.82
2019-03-19T01:48:06.658Z,3.84
2019-03-19T01:49:06.629Z,3.91
2019-03-19T01:50:06.629Z,3.84
2019-03-19T01:51:06.601Z,3.85
2019-03-19T01:52:06.597Z,3.98
2019-03-19T01:53:06.610Z,4.00
2019-03-19T01:54:06.577Z,3.99
2019-03-19T01:55:06.666Z,3.85
2019-03-19T01:56:06.551Z,4.03
2019-03-19T01:57:06.541Z,4.00
2019-03-19T01:58:06.597Z,3.96
2019-03-19T01:59:06.533Z,4.00
2019-03-19T02:00:06.505Z,4.03
2019-03-19T02:01:06.503Z,3.92
2019-03-19T02:02:06.490Z,4.03
2019-03-19T02:03:06.489Z,4.00
2019-03-19T02:04:06.481Z,3.99
2019-03-19T02:05:06.453Z,3.90
2019-03-19T02:06:06.441Z,3.99
2019-03-19T02:07:06.438Z,4.05
2019-03-19T02:08:06.437Z,4.06
2019-03-19T02:09:06.413Z,4.06
2019-03-19T02:10:06.405Z,4.00
2019-03-19T02:11:06.395Z,4.03
2019-03-19T02:12:06.400Z,4.05
2019-03-19T02:13:06.453Z,3.99
2019-03-19T02:14:06.364Z,3.96
2019-03-19T02:15:06.351Z,3.99
2019-03-19T02:16:06.355Z,4.02
2019-03-19T02:17:06.332Z,4.03
2019-03-19T02:18:06.347Z,3.98
2019-03-19T02:19:06.307Z,3.96
2019-03-19T02:20:06.306Z,3.84
2019-03-19T02:21:06.321Z,3.90
2019-03-19T02:22:06.288Z,3.96
2019-03-19T02:23:06.284Z,3.85
2019-03-19T02:24:06.259Z,3.80
2019-03-19T02:25:06.255Z,3.84
2019-03-19T02:26:16.074Z,3.78
2019-03-19T02:27:07.219Z,3.70
2019-03-19T02:28:06.223Z,3.72
2019-03-19T02:29:06.241Z,3.67
2019-03-19T02:30:06.235Z,3.64
2019-03-19T02:31:06.182Z,3.59
2019-03-19T02:32:06.173Z,3.51
2019-03-19T02:33:06.331Z,3.44
2019-03-19T02:34:06.158Z,3.46
2019-03-19T02:35:06.136Z,3.41
2019-03-19T02:36:06.142Z,3.44
2019-03-19T02:37:06.180Z,3.49
2019-03-19T02:38:06.133Z,3.41
2019-03-19T02:39:06.131Z,3.42
2019-03-19T02:40:06.091Z,3.36
2019-03-19T02:41:06.133Z,3.30
2019-03-19T02:42:06.079Z,3.33
2019-03-19T02:43:06.080Z,3.25
2019-03-19T02:44:06.039Z,3.17
2019-03-19T02:45:06.042Z,3.27
2019-03-19T02:46:06.049Z,3.15
2019-03-19T02:47:06.027Z,3.14
2019-03-19T02:48:06.041Z,3.07
2019-03-19T02:49:06.127Z,3.07
2019-03-19T02:50:05.977Z,2.96
2019-03-19T02:51:06.035Z,2.96
2019-03-19T02:52:05.963Z,2.96
2019-03-19T02:53:05.968Z,2.87
2019-03-19T02:54:05.949Z,2.94
2019-03-19T02:55:05.948Z,2.91
2019-03-19T02:56:05.921Z,2.89
2019-03-19T02:57:05.944Z,2.76
2019-03-19T02:58:05.913Z,2.86
2019-03-19T02:59:05.898Z,2.76
2019-03-19T03:00:05.887Z,2.84
2019-03-19T03:01:05.868Z,2.81
2019-03-19T03:02:05.855Z,2.73
2019-03-19T03:03:05.862Z,2.66
2019-03-19T03:04:05.887Z,2.68
2019-03-19T03:05:05.824Z,2.75
2019-03-19T03:06:05.817Z,2.68
2019-03-19T03:07:05.796Z,2.61
2019-03-19T03:08:05.814Z,2.60
2019-03-19T03:09:05.777Z,2.54
2019-03-19T03:10:05.865Z,2.61
2019-03-19T03:11:05.756Z,2.54
2019-03-19T03:12:05.788Z,2.55
2019-03-19T03:13:05.759Z,2.58
2019-03-19T03:14:05.727Z,2.60
2019-03-19T03:15:05.734Z,2.51
2019-03-19T03:16:05.709Z,2.36
2019-03-19T03:17:05.693Z,2.55
2019-03-19T03:18:05.703Z,2.50
2019-03-19T03:19:05.674Z,2.50
2019-03-19T03:20:05.716Z,2.48
2019-03-19T03:21:05.660Z,2.54
2019-03-19T03:22:05.645Z,2.48
2019-03-19T03:23:05.646Z,2.47
2019-03-19T03:24:05.621Z,2.54
2019-03-19T03:25:05.617Z,2.45
2019-03-19T03:26:05.599Z,2.43
2019-03-19T03:27:05.651Z,2.54
2019-03-19T03:28:05.643Z,2.60
2019-03-19T03:29:05.588Z,2.53
2019-03-19T03:30:05.561Z,2.58
2019-03-19T03:31:05.550Z,2.58
2019-03-19T03:32:05.600Z,2.58
2019-03-19T03:33:05.561Z,2.66
2019-03-19T03:34:05.526Z,2.71
2019-03-19T03:35:05.506Z,2.69
2019-03-19T03:36:05.510Z,2.82
2019-03-19T03:37:05.501Z,2.93
2019-03-19T03:38:05.502Z,2.89
2019-03-19T03:39:05.463Z,2.87
2019-03-19T03:40:05.455Z,2.82
2019-03-19T03:41:05.448Z,2.96
2019-03-19T03:42:05.432Z,2.94
2019-03-19T03:43:05.439Z,2.94
2019-03-19T03:44:05.420Z,2.93
2019-03-19T03:45:05.401Z,2.87
2019-03-19T03:46:05.384Z,2.94
2019-03-19T03:47:05.374Z,2.84
2019-03-19T03:48:05.405Z,2.84
2019-03-19T03:49:05.381Z,2.86
2019-03-19T03:50:05.341Z,2.90
2019-03-19T03:51:05.333Z,2.82
2019-03-19T03:52:05.322Z,2.78
2019-03-19T03:53:05.313Z,2.79
2019-03-19T03:54:05.313Z,2.81
2019-03-19T03:55:05.286Z,2.78
2019-03-19T03:56:05.276Z,2.86
2019-03-19T03:57:05.305Z,2.75
2019-03-19T03:58:05.263Z,2.73
2019-03-19T03:59:05.271Z,2.73
2019-03-19T04:00:05.248Z,2.66
2019-03-19T04:01:05.247Z,2.55
2019-03-19T04:02:05.225Z,2.61
2019-03-19T04:03:05.219Z,2.60
2019-03-19T04:04:05.218Z,2.68
2019-03-19T04:05:05.192Z,2.71
2019-03-19T04:06:05.168Z,2.54
2019-03-19T04:07:05.163Z,2.76
2019-03-19T04:08:05.208Z,2.63
2019-03-19T04:09:05.161Z,2.76
2019-03-19T04:10:05.139Z,2.75
2019-03-19T04:11:05.121Z,2.76
2019-03-19T04:12:05.117Z,2.81
2019-03-19T04:13:05.140Z,2.86
2019-03-19T04:14:05.111Z,2.81
2019-03-19T04:15:05.249Z,2.82
2019-03-19T04:16:05.067Z,2.87
2019-03-19T04:17:05.059Z,2.86
2019-03-19T04:18:05.055Z,2.84
2019-03-19T04:19:05.128Z,2.87
2019-03-19T04:20:05.029Z,2.76
2019-03-19T04:21:05.021Z,2.90
2019-03-19T04:22:05.005Z,2.91
2019-03-19T04:23:04.989Z,2.94
2019-03-19T04:24:05.035Z,2.97
2019-03-19T04:25:04.984Z,2.96
2019-03-19T04:26:04.975Z,3.00
2019-03-19T04:27:15.376Z,3.04
2019-03-19T04:28:05.952Z,3.05
2019-03-19T04:29:04.956Z,3.12
2019-03-19T04:30:04.925Z,3.11
2019-03-19T04:31:04.907Z,3.18
2019-03-19T04:32:04.963Z,3.04
2019-03-19T04:33:04.884Z,3.26
2019-03-19T04:34:04.893Z,3.25
2019-03-19T04:35:04.859Z,3.27
2019-03-19T04:36:04.860Z,3.20
2019-03-19T04:37:04.851Z,3.20
2019-03-19T04:38:04.842Z,3.23
2019-03-19T04:39:04.841Z,3.36
2019-03-19T04:40:04.805Z,3.33
2019-03-19T04:41:04.796Z,3.37
2019-03-19T04:42:04.791Z,3.27
2019-03-19T04:43:04.831Z,3.37
2019-03-19T04:44:04.796Z,3.36
2019-03-19T04:45:04.770Z,3.36
2019-03-19T04:46:04.751Z,3.37
2019-03-19T04:47:04.763Z,3.36
2019-03-19T04:48:04.735Z,3.37
2019-03-19T04:49:04.747Z,3.51
2019-03-19T04:50:04.743Z,3.45
2019-03-19T04:51:04.691Z,3.37
2019-03-19T04:52:04.686Z,3.46
2019-03-19T04:53:04.681Z,3.45
2019-03-19T04:54:04.682Z,3.41
2019-03-19T04:55:04.705Z,3.37
2019-03-19T04:56:04.648Z,3.33
2019-03-19T04:57:04.629Z,3.44
2019-03-19T04:58:04.626Z,3.46
2019-03-19T04:59:04.632Z,3.44
2019-03-19T05:00:04.602Z,3.42
2019-03-19T05:01:04.587Z,3.45
2019-03-19T05:02:04.586Z,3.42
2019-03-19T05:03:04.573Z,3.49
2019-03-19T05:04:04.573Z,3.45
2019-03-19T05:05:04.544Z,3.46
2019-03-19T05:06:04.541Z,3.45
2019-03-19T05:07:04.522Z,3.48
2019-03-19T05:08:04.533Z,3.49
2019-03-19T05:09:04.517Z,3.49
2019-03-19T05:10:04.491Z,3.49
2019-03-19T05:11:04.481Z,3.52
2019-03-19T05:12:04.467Z,3.41
2019-03-19T05:13:04.459Z,3.46
2019-03-19T05:14:04.465Z,3.46
2019-03-19T05:15:04.500Z,3.49
2019-03-19T05:16:04.435Z,3.41
2019-03-19T05:17:04.425Z,3.46
2019-03-19T05:18:04.418Z,3.46
2019-03-19T05:19:04.421Z,3.49
2019-03-19T05:20:04.381Z,3.45
2019-03-19T05:21:04.376Z,3.44
2019-03-19T05:22:04.362Z,3.51
2019-03-19T05:23:04.353Z,3.46
2019-03-19T05:24:04.358Z,3.45
2019-03-19T05:25:04.397Z,3.52
2019-03-19T05:26:04.334Z,3.45
2019-03-19T05:27:04.313Z,3.51
2019-03-19T05:28:04.298Z,3.64
2019-03-19T05:29:04.307Z,3.63
2019-03-19T05:30:04.296Z,3.62
2019-03-19T05:31:04.272Z,3.67
2019-03-19T05:32:04.263Z,3.63
2019-03-19T05:33:04.250Z,3.69
2019-03-19T05:34:04.258Z,3.72
2019-03-19T05:35:04.224Z,3.70
2019-03-19T05:36:04.218Z,3.69
2019-03-19T05:37:04.230Z,3.63
2019-03-19T05:38:04.208Z,3.60
2019-03-19T05:39:04.196Z,3.72
2019-03-19T05:40:04.170Z,3.74
2019-03-19T05:41:04.174Z,3.81
2019-03-19T05:42:04.160Z,3.87
2019-03-19T05:43:04.142Z,3.78
2019-03-19T05:44:04.149Z,3.85
2019-03-19T05:45:04.168Z,3.90
2019-03-19T05:46:04.115Z,3.85
2019-03-19T05:47:04.112Z,3.91
2019-03-19T05:48:04.092Z,3.90
2019-03-19T05:49:04.101Z,3.85
2019-03-19T05:50:04.064Z,3.92
2019-03-19T05:51:04.058Z,3.84
2019-03-19T05:52:04.151Z,3.98
2019-03-19T05:53:04.038Z,3.94
2019-03-19T05:54:04.045Z,3.92
2019-03-19T05:55:04.087Z,3.98
2019-03-19T05:56:04.006Z,4.03
2019-03-19T05:57:04.001Z,4.06
2019-03-19T05:58:03.988Z,4.08
2019-03-19T05:59:03.994Z,4.09
2019-03-19T06:00:03.956Z,4.10
2019-03-19T06:01:03.957Z,4.10
2019-03-19T06:02:03.938Z,4.17
2019-03-19T06:03:03.941Z,4.24
2019-03-19T06:04:03.941Z,4.28
2019-03-19T06:05:03.906Z,4.31
2019-03-19T06:06:03.893Z,4.20
2019-03-19T06:07:03.891Z,4.35
2019-03-19T06:08:03.879Z,4.31
2019-03-19T06:09:03.925Z,4.31
2019-03-19T06:10:03.853Z,4.45
2019-03-19T06:11:03.844Z,4.45
2019-03-19T06:12:03.832Z,4.59
2019-03-19T06:13:03.831Z,4.59
2019-03-19T06:14:03.823Z,4.56
2019-03-19T06:15:03.805Z,4.61
2019-03-19T06:16:03.794Z,4.61
2019-03-19T06:17:03.778Z,4.69
2019-03-19T06:18:03.763Z,4.79
2019-03-19T06:19:03.775Z,4.75
2019-03-19T06:20:03.773Z,4.78
2019-03-19T06:21:03.739Z,4.74
2019-03-19T06:22:03.783Z,4.78
2019-03-19T06:23:03.717Z,4.74
2019-03-19T06:24:03.731Z,4.93
2019-03-19T06:25:03.695Z,4.94
2019-03-19T06:26:03.715Z,4.97
2019-03-19T06:27:03.672Z,4.96
2019-03-19T06:28:03.659Z,5.01
2019-03-19T06:29:03.664Z,5.06
2019-03-19T06:30:03.705Z,5.12
2019-03-19T06:31:03.644Z,5.09
2019-03-19T06:32:03.614Z,5.07
2019-03-19T06:33:03.619Z,5.15
2019-03-19T06:34:03.618Z,5.14
2019-03-19T06:35:03.581Z,5.18
2019-03-19T06:36:03.587Z,5.33
2019-03-19T06:37:03.562Z,5.29
2019-03-19T06:38:03.554Z,5.37
2019-03-19T06:39:03.538Z,5.51
2019-03-19T06:40:03.546Z,5.59
2019-03-19T06:41:03.531Z,5.72
2019-03-19T06:42:03.522Z,5.67
2019-03-19T06:43:03.515Z,5.84
2019-03-19T06:44:03.505Z,5.80
2019-03-19T06:45:03.495Z,5.93
2019-03-19T06:46:03.469Z,5.94
2019-03-19T06:47:03.461Z,6.02
2019-03-19T06:48:03.444Z,6.09
2019-03-19T06:49:03.438Z,6.13
2019-03-19T06:50:03.462Z,6.08
2019-03-19T06:51:03.420Z,6.19
2019-03-19T06:52:03.403Z,6.16
2019-03-19T06:53:03.390Z,6.13
2019-03-19T06:54:03.384Z,6.18
2019-03-19T06:55:03.383Z,6.30
2019-03-19T06:56:03.363Z,6.31
2019-03-19T06:57:03.362Z,6.32
2019-03-19T06:58:11.077Z,6.32
2019-03-19T06:59:04.330Z,6.30
2019-03-19T07:00:03.334Z,6.34
2019-03-19T07:01:03.304Z,6.42
2019-03-19T07:02:03.293Z,6.30
2019-03-19T07:03:03.298Z,6.38
2019-03-19T07:04:03.280Z,6.30
2019-03-19T07:05:03.279Z,6.30
2019-03-19T07:06:03.253Z,6.45
2019-03-19T07:07:03.249Z,6.38
2019-03-19T07:08:03.234Z,6.53
2019-03-19T07:09:03.219Z,6.57
2019-03-19T07:10:03.242Z,6.49
2019-03-19T07:11:03.201Z,6.43
2019-03-19T07:12:03.242Z,6.67
2019-03-19T07:13:03.186Z,6.65
2019-03-19T07:14:03.178Z,6.78
2019-03-19T07:15:03.190Z,6.83
2019-03-19T07:16:03.199Z,6.88
2019-03-19T07:17:03.143Z,6.83
2019-03-19T07:18:03.128Z,6.71
2019-03-19T07:19:03.125Z,6.75
2019-03-19T07:20:03.118Z,6.82
2019-03-19T07:21:03.102Z,6.85
2019-03-19T07:22:03.086Z,6.85
2019-03-19T07:23:03.076Z,6.99
2019-03-19T07:24:03.078Z,7.49
2019-03-19T07:25:03.205Z,8.19
2019-03-19T07:26:03.050Z,8.93
2019-03-19T07:27:03.031Z,9.60
2019-03-19T07:28:03.061Z,10.23
2019-03-19T07:29:03.003Z,10.01
2019-03-19T07:30:03.010Z,10.70
2019-03-19T07:31:03.041Z,11.19
2019-03-19T07:32:02.987Z,11.74
2019-03-19T07:33:02.965Z,11.91
2019-03-19T07:34:02.952Z,12.17
2019-03-19T07:35:02.960Z,12.54
2019-03-19T07:36:02.931Z,12.80
2019-03-19T07:37:03.028Z,13.17
2019-03-19T07:38:02.923Z,13.67
2019-03-19T07:39:02.899Z,13.27
2019-03-19T07:40:02.974Z,12.80
2019-03-19T07:41:02.882Z,12.41
2019-03-19T07:42:02.880Z,12.62
2019-03-19T07:43:02.860Z,12.30
2019-03-19T07:44:02.846Z,12.18
2019-03-19T07:45:02.847Z,12.05
2019-03-19T07:46:02.828Z,12.81
2019-03-19T07:47:02.844Z,12.77
2019-03-19T07:48:02.807Z,12.38
2019-03-19T07:49:02.823Z,12.03
2019-03-19T07:50:02.806Z,11.79
2019-03-19T07:51:02.787Z,11.70
2019-03-19T07:52:02.770Z,11.46
2019-03-19T07:53:02.744Z,11.22
2019-03-19T07:54:02.770Z,10.98
2019-03-19T07:55:02.743Z,10.68
2019-03-19T07:56:02.722Z,10.36
2019-03-19T07:57:02.711Z,10.10
2019-03-19T07:58:02.696Z,10.86
2019-03-19T07:59:02.689Z,11.00
2019-03-19T08:00:02.737Z,10.95
2019-03-19T08:01:02.839Z,10.79
2019-03-19T08:02:02.647Z,10.73
2019-03-19T08:03:02.636Z,10.64
2019-03-19T08:04:04.933Z,10.64
2019-03-19T08:05:02.628Z,10.72
2019-03-19T08:06:02.633Z,10.85
2019-03-19T08:07:02.609Z,10.93
2019-03-19T08:08:02.584Z,10.93
2019-03-19T08:09:02.606Z,10.70
2019-03-19T08:10:02.573Z,10.35
2019-03-19T08:11:02.570Z,10.39
2019-03-19T08:12:02.549Z,11.58
2019-03-19T08:13:02.554Z,11.87
2019-03-19T08:14:02.581Z,12.03
2019-03-19T08:15:02.516Z,11.89
2019-03-19T08:16:02.514Z,11.74
2019-03-19T08:17:02.492Z,11.51
2019-03-19T08:18:02.535Z,11.45
2019-03-19T08:19:02.483Z,11.34
2019-03-19T08:20:02.455Z,11.38
2019-03-19T08:21:02.476Z,11.15
2019-03-19T08:22:02.444Z,11.13
2019-03-19T08:23:02.471Z,11.04
2019-03-19T08:24:02.416Z,10.83
2019-03-19T08:25:02.401Z,10.64
2019-03-19T08:26:02.424Z,10.42
2019-03-19T08:27:02.382Z,10.28
2019-03-19T08:28:02.366Z,10.10
2019-03-19T08:29:02.380Z,10.31
2019-03-19T08:30:02.412Z,10.28
2019-03-19T08:31:02.345Z,10.26
2019-03-19T08:32:02.330Z,10.03
2019-03-19T08:33:02.316Z,10.03
2019-03-19T08:34:02.312Z,10.03
2019-03-19T08:35:02.299Z,10.05
2019-03-19T08:36:09.377Z,10.20
2019-03-19T08:37:03.267Z,10.16
2019-03-19T08:38:02.261Z,10.09
2019-03-19T08:39:02.252Z,10.80
2019-03-19T08:40:02.242Z,11.23
2019-03-19T08:41:02.263Z,11.33
2019-03-19T08:42:02.244Z,11.09
2019-03-19T08:43:02.220Z,11.09
2019-03-19T08:44:02.197Z,10.87
2019-03-19T08:45:02.192Z,10.95
2019-03-19T08:46:02.197Z,10.95
2019-03-19T08:47:02.171Z,10.94
2019-03-19T08:48:02.146Z,10.90
2019-03-19T08:49:02.140Z,10.85
2019-03-19T08:50:02.129Z,10.85
2019-03-19T08:51:02.199Z,10.90
2019-03-19T08:52:02.127Z,11.03
2019-03-19T08:53:02.098Z,11.04
2019-03-19T08:54:02.095Z,11.08
2019-03-19T08:55:02.090Z,11.49
2019-03-19T08:56:02.096Z,11.64
2019-03-19T08:57:02.052Z,11.46
2019-03-19T08:58:02.064Z,11.31
2019-03-19T08:59:05.855Z,11.31
2019-03-19T09:00:02.046Z,11.30
2019-03-19T09:01:02.015Z,11.40
2019-03-19T09:02:02.027Z,11.55
2019-03-19T09:03:02.005Z,11.56
2019-03-19T09:04:02.004Z,11.45
2019-03-19T09:05:03.089Z,11.28
2019-03-19T09:06:01.953Z,11.22
2019-03-19T09:07:01.966Z,11.41
2019-03-19T09:08:01.946Z,11.55
2019-03-19T09:09:01.960Z,11.74
2019-03-19T09:10:01.919Z,11.82
2019-03-19T09:11:01.910Z,11.88
2019-03-19T09:12:01.923Z,11.88
2019-03-19T09:13:01.880Z,12.00
2019-03-19T09:14:01.871Z,12.03
2019-03-19T09:15:01.858Z,12.36
2019-03-19T09:16:01.847Z,12.25
2019-03-19T09:17:01.865Z,12.21
2019-03-19T09:18:01.832Z,12.22
2019-03-19T09:19:01.823Z,12.30
2019-03-19T09:20:01.805Z,13.02
2019-03-19T09:21:01.797Z,12.95
2019-03-19T09:22:01.797Z,12.65
2019-03-19T09:23:01.777Z,12.65
2019-03-19T09:24:01.765Z,12.71
2019-03-19T09:25:01.758Z,12.58
2019-03-19T09:26:01.763Z,12.46
2019-03-19T09:27:01.787Z,12.47
2019-03-19T09:28:01.721Z,12.54
2019-03-19T09:29:01.718Z,12.25
2019-03-19T09:30:01.741Z,12.25
2019-03-19T09:31:01.697Z,12.05
2019-03-19T09:32:01.678Z,12.32
2019-03-19T09:33:01.689Z,12.44
2019-03-19T09:34:01.656Z,12.35
2019-03-19T09:35:01.655Z,12.14
2019-03-19T09:36:01.666Z,11.99
2019-03-19T09:37:01.638Z,12.43
2019-03-19T09:38:01.650Z,12.43
2019-03-19T09:39:01.603Z,12.41
2019-03-19T09:40:01.608Z,12.54
2019-03-19T09:41:01.581Z,12.61
2019-03-19T09:42:01.574Z,12.66
2019-03-19T09:43:01.576Z,12.68
2019-03-19T09:44:01.619Z,12.62
2019-03-19T09:45:01.548Z,12.53
2019-03-19T09:46:01.521Z,12.36
2019-03-19T09:47:01.538Z,12.14
2019-03-19T09:48:01.536Z,12.03
2019-03-19T09:49:01.494Z,11.88
2019-03-19T09:50:01.487Z,11.96
2019-03-19T09:51:01.540Z,11.76
2019-03-19T09:52:01.470Z,11.73
2019-03-19T09:53:01.484Z,11.56
2019-03-19T09:54:01.454Z,11.19
2019-03-19T09:55:01.430Z,11.18
2019-03-19T09:56:01.438Z,11.09
2019-03-19T09:57:01.404Z,11.04
2019-03-19T09:58:01.392Z,11.70
2019-03-19T09:59:01.450Z,12.41
2019-03-19T10:00:01.384Z,13.30
2019-03-19T10:01:01.366Z,14.04
2019-03-19T10:02:01.368Z,14.11
2019-03-19T10:03:01.344Z,14.55
2019-03-19T10:04:01.352Z,14.58
2019-03-19T10:05:01.318Z,14.69
2019-03-19T10:06:13.375Z,14.89
2019-03-19T10:07:06.292Z,15.15
2019-03-19T10:08:01.289Z,15.11
2019-03-19T10:09:01.304Z,14.82
2019-03-19T10:10:01.266Z,14.53
2019-03-19T10:11:01.256Z,14.55
2019-03-19T10:12:01.248Z,14.73
2019-03-19T10:13:01.256Z,14.44
2019-03-19T10:14:01.251Z,14.40
2019-03-19T10:15:01.224Z,14.38
2019-03-19T10:16:01.211Z,14.52
2019-03-19T10:17:01.196Z,14.28
2019-03-19T10:18:01.196Z,14.11
2019-03-19T10:19:01.193Z,13.71
2019-03-19T10:20:01.156Z,13.58
2019-03-19T10:21:01.152Z,13.55
2019-03-19T10:22:01.150Z,13.05
2019-03-19T10:23:01.123Z,12.98
2019-03-19T10:24:01.135Z,12.87
2019-03-19T10:25:01.102Z,12.76
2019-03-19T10:26:01.091Z,12.58
2019-03-19T10:27:01.092Z,12.38
2019-03-19T10:28:01.086Z,11.99
2019-03-19T10:29:01.092Z,11.89
2019-03-19T10:30:01.057Z,11.79
2019-03-19T10:31:01.041Z,11.82
2019-03-19T10:32:01.029Z,11.62
2019-03-19T10:33:01.017Z,11.45
2019-03-19T10:34:01.076Z,11.28
2019-03-19T10:35:01.016Z,11.23
2019-03-19T10:36:01.027Z,11.12
2019-03-19T10:37:00.983Z,10.94
2019-03-19T10:38:00.965Z,10.91
2019-03-19T10:39:00.963Z,10.64
2019-03-19T10:40:00.968Z,10.57
2019-03-19T10:41:00.934Z,10.46
2019-03-19T10:42:00.931Z,10.39
2019-03-19T10:43:00.913Z,10.72
2019-03-19T10:44:00.898Z,11.49
2019-03-19T10:45:00.961Z,12.21
2019-03-19T10:46:00.880Z,12.80
2019-03-19T10:47:00.864Z,13.05
2019-03-19T10:48:00.854Z,13.13
2019-03-19T10:49:00.843Z,13.40
2019-03-19T10:50:00.877Z,13.57
2019-03-19T10:51:00.824Z,13.49
2019-03-19T10:52:00.818Z,13.38
2019-03-19T10:53:00.837Z,13.27
2019-03-19T10:54:00.804Z,13.16
2019-03-19T10:55:00.792Z,13.06
2019-03-19T10:56:00.772Z,12.91
2019-03-19T10:57:00.767Z,12.83
2019-03-19T10:58:10.585Z,12.71
2019-03-19T10:59:01.740Z,12.66
2019-03-19T11:00:00.764Z,12.58
2019-03-19T11:01:00.712Z,12.61
2019-03-19T11:02:00.760Z,12.58
2019-03-19T11:03:00.698Z,12.58
2019-03-19T11:04:00.682Z,12.79
2019-03-19T11:05:00.684Z,12.76
2019-03-19T11:06:00.676Z,12.84
2019-03-19T11:07:00.656Z,12.83
2019-03-19T11:08:00.640Z,13.09
2019-03-19T11:09:00.628Z,13.53
2019-03-19T11:10:00.617Z,13.86
2019-03-19T11:11:00.647Z,14.08
2019-03-19T11:12:00.674Z,14.19
2019-03-19T11:13:00.598Z,14.40
2019-03-19T11:14:00.653Z,14.58
2019-03-19T11:15:00.585Z,14.61
2019-03-19T11:16:00.570Z,14.61
2019-03-19T11:17:00.567Z,14.85
2019-03-19T11:18:00.547Z,15.11
2019-03-19T11:19:00.530Z,15.23
2019-03-19T11:20:00.514Z,15.65
2019-03-19T11:21:00.524Z,15.58
2019-03-19T11:22:00.496Z,15.36
2019-03-19T11:23:00.492Z,15.22
2019-03-19T11:24:00.483Z,15.15
2019-03-19T11:25:00.515Z,15.04
2019-03-19T11:26:00.473Z,14.97
2019-03-19T11:27:00.439Z,14.55
2019-03-19T11:28:00.425Z,14.48
2019-03-19T11:29:00.419Z,14.36
2019-03-19T11:30:00.538Z,14.37
2019-03-19T11:31:00.490Z,14.28
2019-03-19T11:32:00.398Z,14.03
2019-03-19T11:33:00.394Z,13.93
2019-03-19T11:34:00.373Z,13.85
2019-03-19T11:35:00.470Z,13.97
2019-03-19T11:36:00.407Z,13.90
2019-03-19T11:37:00.325Z,13.93
2019-03-19T11:38:00.328Z,14.58
2019-03-19T11:39:00.319Z,15.35
2019-03-19T11:40:00.363Z,16.22
2019-03-19T11:41:00.294Z,16.69
2019-03-19T11:42:00.285Z,16.98
2019-03-19T11:43:00.263Z,16.51
2019-03-19T11:44:00.255Z,16.05
2019-03-19T11:45:00.239Z,15.45
2019-03-19T11:46:00.235Z,15.07
2019-03-19T11:47:00.235Z,14.89
2019-03-19T11:48:00.211Z,15.01
2019-03-19T11:49:00.198Z,15.48
2019-03-19T11:50:00.391Z,16.64
2019-03-19T11:51:00.177Z,17.49
2019-03-19T11:52:00.179Z,18.39
2019-03-19T11:53:00.158Z,19.04
2019-03-19T11:54:00.145Z,19.72
2019-03-19T11:55:00.271Z,20.46
2019-03-19T11:56:00.134Z,20.27
2019-03-19T11:57:00.154Z,19.54
2019-03-19T11:58:00.100Z,19.41
2019-03-19T11:59:00.090Z,18.81
2019-03-19T12:00:10.533Z,17.93
2019-03-19T12:01:01.071Z,17.43
2019-03-19T12:02:00.089Z,16.80
2019-03-19T12:03:10.863Z,16.42
2019-03-19T12:04:01.041Z,16.08
2019-03-19T12:05:00.038Z,15.78
2019-03-19T12:06:00.028Z,15.45
2019-03-19T12:07:00.016Z,15.01
2019-03-19T12:08:00.006Z,14.58
2019-03-19T12:08:59.995Z,14.12
2019-03-19T12:09:59.983Z,13.79
2019-03-19T12:11:00.011Z,13.67
2019-03-19T12:11:59.998Z,13.23
2019-03-19T12:12:59.936Z,13.13
2019-03-19T12:13:59.940Z,13.01
2019-03-19T12:14:59.943Z,13.01
2019-03-19T12:15:59.916Z,12.98
2019-03-19T12:16:59.898Z,12.88
2019-03-19T12:17:59.931Z,12.80
2019-03-19T12:18:59.882Z,12.68
2019-03-19T12:19:59.861Z,12.62
2019-03-19T12:20:59.852Z,12.55
2019-03-19T12:21:59.855Z,12.46
2019-03-19T12:22:59.911Z,12.50
2019-03-19T12:23:59.828Z,12.55
2019-03-19T12:24:59.815Z,12.58
2019-03-19T12:25:59.810Z,12.90
2019-03-19T12:26:59.800Z,13.83
2019-03-19T12:27:59.806Z,14.74
2019-03-19T12:28:59.809Z,15.62
2019-03-19T12:29:59.765Z,16.55
2019-03-19T12:30:59.751Z,17.24
2019-03-19T12:31:59.762Z,17.09
2019-03-19T12:32:59.822Z,17.47
2019-03-19T12:33:59.818Z,17.86
2019-03-19T12:35:01.575Z,17.86
2019-03-19T12:35:59.718Z,18.33
2019-03-19T12:36:59.704Z,18.74
2019-03-19T12:37:59.722Z,18.67
2019-03-19T12:38:59.665Z,18.57
2019-03-19T12:39:59.698Z,18.43
2019-03-19T12:40:59.647Z,17.68
2019-03-19T12:41:59.648Z,17.14
2019-03-19T12:42:59.630Z,16.62
2019-03-19T12:43:59.617Z,16.34
2019-03-19T12:44:59.618Z,16.03
2019-03-19T12:45:59.600Z,15.48
2019-03-19T12:46:59.596Z,14.93
2019-03-19T12:47:59.591Z,14.63
2019-03-19T12:48:59.557Z,14.37
2019-03-19T12:49:59.565Z,14.22
2019-03-19T12:50:59.542Z,13.96
2019-03-19T12:51:59.541Z,13.72
2019-03-19T12:52:59.543Z,13.55
2019-03-19T12:53:59.524Z,13.32
2019-03-19T12:54:59.494Z,13.14
2019-03-19T12:55:59.489Z,13.11
2019-03-19T12:56:59.469Z,13.01
2019-03-19T12:58:01.369Z,13.02
2019-03-19T12:58:59.460Z,13.05
2019-03-19T12:59:59.452Z,13.09
2019-03-19T13:00:59.495Z,13.49
2019-03-19T13:01:59.431Z,14.22
2019-03-19T13:02:59.427Z,14.92
2019-03-19T13:03:59.390Z,15.44
2019-03-19T13:04:59.390Z,15.63
2019-03-19T13:05:59.381Z,15.47
2019-03-19T13:06:59.360Z,15.40